Time;durP1;ratioP1;P1;durP2;ratioP2;P2;SDS_P1;SDS_P2;PMS_P1;PMS_P2;Temp;Humidity;BMP_temperature;BMP_pressure;BME280_temperature;BME280_humidity;BME280_pressure;Samples;Min_cycle;Max_cycle;Signal;HPM_P1;HPM_P2
2023/07/28 00:00:02;;;;;;;4.05;1.63;;;;;;;;;;5010952;28;20125;-79
2023/07/28 00:02:35;;;;;;;4.47;1.45;;;;;;;;;;5006343;28;20142;-79
2023/07/28 00:05:02;;;;;;;2.88;1.63;;;;;;;;;;5026095;28;20102;-80
2023/07/28 00:07:29;;;;;;;3.78;1.70;;;;;;;;;;5033522;28;20053;-79
2023/07/28 00:09:55;;;;;;;3.53;1.80;;;;;;;;;;5020294;28;20108;-79
2023/07/28 00:12:22;;;;;;;3.67;1.70;;;;;;;;;;5016934;28;20100;-78
2023/07/28 00:14:49;;;;;;;2.88;1.40;;;;;;;;;;5013861;28;20525;-79
2023/07/28 00:17:16;;;;;;;4.38;1.70;;;;;;;;;;5030209;28;20121;-79
2023/07/28 00:19:43;;;;;;;2.75;1.50;;;;;;;;;;5024116;28;20411;-81
2023/07/28 00:22:10;;;;;;;2.90;1.48;;;;;;;;;;5009418;28;20116;-80
2023/07/28 00:24:36;;;;;;;3.53;1.65;;;;;;;;;;5007692;28;20137;-79
2023/07/28 00:27:06;;;;;;;5.07;1.65;;;;;;;;;;5007049;28;20042;-79
2023/07/28 00:29:33;;;;;;;3.58;1.73;;;;;;;;;;4996317;28;20062;-79
2023/07/28 00:32:01;;;;;;;5.63;1.67;;;;;;;;;;5006927;28;20072;-78
2023/07/28 00:34:28;;;;;;;3.38;1.70;;;;;;;;;;5007825;28;20120;-81
2023/07/28 00:36:55;;;;;;;5.95;1.70;;;;;;;;;;5002804;28;20088;-79
2023/07/28 00:39:22;;;;;;;6.35;1.60;;;;;;;;;;5018949;28;20048;-80
2023/07/28 00:41:49;;;;;;;5.38;1.50;;;;;;;;;;5013154;28;20061;-80
2023/07/28 00:44:17;;;;;;;2.95;1.63;;;;;;;;;;5015068;28;20034;-78
2023/07/28 00:46:44;;;;;;;5.45;1.50;;;;;;;;;;5007724;28;20397;-79
2023/07/28 00:49:11;;;;;;;5.55;1.63;;;;;;;;;;5005513;28;20056;-78
2023/07/28 00:51:38;;;;;;;3.88;1.33;;;;;;;;;;5037515;28;20127;-78
2023/07/28 00:54:05;;;;;;;6.70;1.60;;;;;;;;;;5038243;28;20154;-79
2023/07/28 00:56:32;;;;;;;2.17;1.42;;;;;;;;;;5028289;28;20137;-80
2023/07/28 00:59:00;;;;;;;6.93;1.40;;;;;;;;;;5014910;28;20037;-79
2023/07/28 01:01:27;;;;;;;4.68;1.75;;;;;;;;;;5028414;28;20463;-79
2023/07/28 01:03:54;;;;;;;3.58;1.40;;;;;;;;;;5012433;28;20076;-80
2023/07/28 01:06:29;;;;;;;2.33;1.35;;;;;;;;;;5015940;28;20075;-80
2023/07/28 01:09:05;;;;;;;4.28;1.40;;;;;;;;;;5015807;28;20037;-79
2023/07/28 01:11:32;;;;;;;2.55;1.17;;;;;;;;;;5036755;28;20072;-81
2023/07/28 01:14:01;;;;;;;4.53;1.40;;;;;;;;;;5036482;28;20239;-81
2023/07/28 01:16:28;;;;;;;2.50;1.52;;;;;;;;;;5035266;28;20284;-79
2023/07/28 01:18:55;;;;;;;8.73;1.65;;;;;;;;;;5038613;28;20491;-79
2023/07/28 01:21:25;;;;;;;4.18;1.33;;;;;;;;;;5010883;28;20041;-79
2023/07/28 01:23:58;;;;;;;4.57;1.50;;;;;;;;;;5025039;28;20045;-79
2023/07/28 01:26:30;;;;;;;3.92;1.20;;;;;;;;;;5036573;28;20052;-78
2023/07/28 01:28:59;;;;;;;3.78;2.05;;;;;;;;;;5015796;28;20256;-80
2023/07/28 01:31:27;;;;;;;6.38;1.35;;;;;;;;;;5023699;28;20049;-78
2023/07/28 01:33:54;;;;;;;3.97;1.40;;;;;;;;;;5019769;28;20045;-81
2023/07/28 01:36:21;;;;;;;2.85;1.42;;;;;;;;;;5024133;28;20105;-79
2023/07/28 01:38:48;;;;;;;5.70;1.50;;;;;;;;;;5046468;28;20055;-80
2023/07/28 01:41:14;;;;;;;3.95;1.20;;;;;;;;;;5025610;28;20464;-80
2023/07/28 01:43:44;;;;;;;2.08;1.10;;;;;;;;;;5015646;28;20049;-80
2023/07/28 01:46:11;;;;;;;4.47;1.60;;;;;;;;;;4996062;28;20052;-80
2023/07/28 01:48:37;;;;;;;3.53;1.35;;;;;;;;;;5006237;28;20573;-78
2023/07/28 01:51:04;;;;;;;1.80;1.35;;;;;;;;;;5029377;28;20042;-80
2023/07/28 01:53:31;;;;;;;2.67;1.10;;;;;;;;;;5031286;28;20117;-78
2023/07/28 01:56:00;;;;;;;1.75;1.13;;;;;;;;;;5029461;28;20057;-79
2023/07/28 01:58:27;;;;;;;3.42;1.33;;;;;;;;;;5032852;28;20061;-78
2023/07/28 02:00:54;;;;;;;2.47;1.35;;;;;;;;;;5033690;28;20107;-78
2023/07/28 02:03:21;;;;;;;4.75;1.50;;;;;;;;;;5029067;28;20331;-79
2023/07/28 02:05:48;;;;;;;4.32;1.45;;;;;;;;;;5030546;28;20073;-75
2023/07/28 02:08:14;;;;;;;4.00;1.50;;;;;;;;;;5028635;28;20055;-79
2023/07/28 02:10:42;;;;;;;5.15;1.55;;;;;;;;;;5030466;28;20037;-79
2023/07/28 02:13:09;;;;;;;2.55;1.35;;;;;;;;;;5027735;28;20046;-79
2023/07/28 02:15:36;;;;;;;4.28;1.30;;;;;;;;;;5047370;28;20055;-76
2023/07/28 02:18:06;;;;;;;2.70;1.40;;;;;;;;;;5012412;28;20462;-81
2023/07/28 02:20:34;;;;;;;2.83;1.40;;;;;;;;;;5027401;28;20108;-81
2023/07/28 02:23:01;;;;;;;1.83;1.17;;;;;;;;;;5025447;28;20041;-80
2023/07/28 02:25:27;;;;;;;3.13;1.23;;;;;;;;;;5028809;28;20049;-80
2023/07/28 02:27:54;;;;;;;4.35;1.27;;;;;;;;;;5031342;28;22280;-80
2023/07/28 02:30:24;;;;;;;1.65;1.27;;;;;;;;;;5016075;28;20115;-79
2023/07/28 02:32:50;;;;;;;2.45;1.40;;;;;;;;;;5026225;28;20052;-80
2023/07/28 02:35:17;;;;;;;2.58;1.30;;;;;;;;;;5012676;28;20069;-78
2023/07/28 02:37:47;;;;;;;2.53;1.35;;;;;;;;;;5013369;28;20152;-80
2023/07/28 02:40:14;;;;;;;4.25;1.50;;;;;;;;;;5008531;28;20045;-79
2023/07/28 02:42:40;;;;;;;4.57;1.35;;;;;;;;;;5013868;28;20458;-79
2023/07/28 02:45:07;;;;;;;2.08;1.30;;;;;;;;;;4997718;28;20125;-79
2023/07/28 02:47:34;;;;;;;3.08;1.63;;;;;;;;;;5014130;28;20067;-80
2023/07/28 02:50:01;;;;;;;3.15;1.35;;;;;;;;;;4998138;28;20054;-79
2023/07/28 02:52:28;;;;;;;3.50;1.35;;;;;;;;;;5014551;28;20060;-79
2023/07/28 02:54:55;;;;;;;3.08;1.75;;;;;;;;;;5005604;28;20113;-80
2023/07/28 02:57:22;;;;;;;4.75;1.30;;;;;;;;;;5026638;28;20480;-79
2023/07/28 02:59:49;;;;;;;3.65;1.50;;;;;;;;;;5031589;28;20041;-79
2023/07/28 03:02:18;;;;;;;4.38;1.48;;;;;;;;;;5031381;28;20033;-79
2023/07/28 03:04:45;;;;;;;3.75;1.67;;;;;;;;;;5011659;28;20052;-78
2023/07/28 03:07:12;;;;;;;2.25;1.45;;;;;;;;;;5027310;28;20044;-80
2023/07/28 03:09:40;;;;;;;2.90;1.40;;;;;;;;;;5029730;28;20383;-80
2023/07/28 03:12:10;;;;;;;3.75;1.30;;;;;;;;;;5028103;28;20030;-80
2023/07/28 03:14:37;;;;;;;2.22;1.17;;;;;;;;;;5015353;28;20089;-80
2023/07/28 03:17:04;;;;;;;1.83;1.20;;;;;;;;;;5032532;28;20118;-81
2023/07/28 03:19:31;;;;;;;1.75;1.10;;;;;;;;;;5012911;28;20487;-79
2023/07/28 03:21:58;;;;;;;2.22;1.20;;;;;;;;;;5028685;28;20114;-80
2023/07/28 03:24:25;;;;;;;2.10;1.15;;;;;;;;;;5009590;28;20053;-79
2023/07/28 03:26:51;;;;;;;1.60;1.17;;;;;;;;;;5031975;28;20431;-78
2023/07/28 03:29:18;;;;;;;1.73;1.10;;;;;;;;;;5023958;28;20099;-79
2023/07/28 03:31:46;;;;;;;2.47;1.30;;;;;;;;;;5012109;28;20058;-80
2023/07/28 03:34:13;;;;;;;2.05;1.40;;;;;;;;;;5009975;28;20269;-81
2023/07/28 03:36:41;;;;;;;1.63;1.02;;;;;;;;;;5025324;28;20099;-80
2023/07/28 03:39:08;;;;;;;5.30;1.25;;;;;;;;;;4995770;28;20104;-79
2023/07/28 03:41:35;;;;;;;6.13;1.65;;;;;;;;;;5011506;28;20088;-81
2023/07/28 03:44:02;;;;;;;2.05;1.27;;;;;;;;;;5011885;28;20417;-79
2023/07/28 03:46:29;;;;;;;3.05;1.45;;;;;;;;;;5004485;28;20033;-79
2023/07/28 03:48:58;;;;;;;3.60;1.30;;;;;;;;;;5046826;28;20048;-79
2023/07/28 03:51:25;;;;;;;1.75;1.25;;;;;;;;;;5008900;28;20049;-78
2023/07/28 03:53:52;;;;;;;2.13;1.17;;;;;;;;;;5009827;28;20046;-79
2023/07/28 03:56:19;;;;;;;3.83;1.20;;;;;;;;;;5019895;28;20043;-78
2023/07/28 03:58:45;;;;;;;4.22;1.40;;;;;;;;;;5030520;28;20044;-79
2023/07/28 04:01:13;;;;;;;4.30;1.70;;;;;;;;;;5025949;28;20053;-79
2023/07/28 04:03:40;;;;;;;1.70;1.20;;;;;;;;;;5014913;28;20057;-78
2023/07/28 04:06:11;;;;;;;4.38;1.17;;;;;;;;;;5025929;28;20100;-80
2023/07/28 04:08:39;;;;;;;1.85;1.05;;;;;;;;;;5013069;28;20049;-79
2023/07/28 04:11:06;;;;;;;2.65;1.38;;;;;;;;;;5022069;28;20058;-79
2023/07/28 04:13:38;;;;;;;5.55;1.33;;;;;;;;;;5028826;28;20045;-79
2023/07/28 04:16:05;;;;;;;1.67;1.10;;;;;;;;;;5030727;28;20330;-79
2023/07/28 04:18:32;;;;;;;2.30;1.10;;;;;;;;;;5015623;28;20071;-79
2023/07/28 04:20:58;;;;;;;2.78;1.17;;;;;;;;;;5026931;28;20373;-78
2023/07/28 04:23:25;;;;;;;1.88;1.10;;;;;;;;;;5012523;28;20160;-79
2023/07/28 04:25:52;;;;;;;1.40;1.00;;;;;;;;;;5008104;28;20041;-81
2023/07/28 04:28:24;;;;;;;4.97;1.05;;;;;;;;;;4996203;28;20085;-79
2023/07/28 04:30:51;;;;;;;4.28;1.20;;;;;;;;;;5013883;28;20049;-81
2023/07/28 04:33:37;;;;;;;4.37;1.30;;;;;;;;;;5029285;28;20134;-81
2023/07/28 04:36:04;;;;;;;1.58;1.05;;;;;;;;;;5009910;28;20128;-82
2023/07/28 04:38:33;;;;;;;1.33;0.68;;;;;;;;;;5000764;28;20045;-81
2023/07/28 04:41:00;;;;;;;1.63;1.05;;;;;;;;;;4991838;28;20042;-80
2023/07/28 04:43:45;;;;;;;1.10;0.90;;;;;;;;;;5033119;28;20045;-81
2023/07/28 04:46:15;;;;;;;1.25;0.80;;;;;;;;;;5023647;28;20117;-81
2023/07/28 04:48:44;;;;;;;2.13;0.70;;;;;;;;;;5022156;28;20097;-80
2023/07/28 04:51:29;;;;;;;2.90;0.82;;;;;;;;;;5067870;28;20124;-81
2023/07/28 04:54:17;;;;;;;2.10;0.85;;;;;;;;;;5028256;28;20068;-80
2023/07/28 04:56:43;;;;;;;2.47;0.80;;;;;;;;;;5005099;28;20415;-81
2023/07/28 04:59:10;;;;;;;4.82;0.85;;;;;;;;;;5006343;28;20092;-81
2023/07/28 05:01:37;;;;;;;1.70;0.82;;;;;;;;;;5005633;28;20046;-80
2023/07/28 05:04:04;;;;;;;1.63;0.80;;;;;;;;;;4996125;28;20121;-80
2023/07/28 05:06:31;;;;;;;2.10;0.80;;;;;;;;;;5016330;28;20052;-81
2023/07/28 05:08:58;;;;;;;1.20;0.60;;;;;;;;;;5030779;28;20392;-79
2023/07/28 05:11:34;;;;;;;4.13;0.73;;;;;;;;;;5027194;28;20103;-80
2023/07/28 05:14:02;;;;;;;3.33;0.85;;;;;;;;;;5032081;28;20045;-81
2023/07/28 05:16:29;;;;;;;1.38;0.82;;;;;;;;;;5015445;28;20044;-79
2023/07/28 05:19:05;;;;;;;1.85;0.70;;;;;;;;;;5054083;28;20033;-80
2023/07/28 05:21:51;;;;;;;1.65;0.70;;;;;;;;;;5012834;28;20060;-78
2023/07/28 05:24:22;;;;;;;3.03;0.90;;;;;;;;;;5011400;28;20046;-79
2023/07/28 05:26:48;;;;;;;3.17;0.85;;;;;;;;;;5035661;28;20071;-80
2023/07/28 05:29:15;;;;;;;1.40;0.82;;;;;;;;;;5032870;28;20044;-78
2023/07/28 05:31:43;;;;;;;1.90;0.93;;;;;;;;;;5036713;28;20114;-82
2023/07/28 05:34:20;;;;;;;2.40;1.08;;;;;;;;;;5033452;28;20540;-80
2023/07/28 05:36:47;;;;;;;1.52;0.77;;;;;;;;;;5028717;28;20105;-79
2023/07/28 05:39:13;;;;;;;2.10;0.90;;;;;;;;;;5034683;28;20422;-80
2023/07/28 05:41:43;;;;;;;1.83;0.82;;;;;;;;;;5032169;28;20045;-80
2023/07/28 05:44:11;;;;;;;1.50;1.10;;;;;;;;;;5014918;28;20523;-78
2023/07/28 05:46:38;;;;;;;1.20;0.80;;;;;;;;;;5018349;28;20205;-81
2023/07/28 05:49:05;;;;;;;2.20;0.80;;;;;;;;;;5031826;28;20046;-80
2023/07/28 05:51:32;;;;;;;1.48;0.80;;;;;;;;;;5031372;28;20511;-79
2023/07/28 05:53:59;;;;;;;0.82;0.60;;;;;;;;;;5031911;28;20069;-79
2023/07/28 05:56:26;;;;;;;2.53;0.75;;;;;;;;;;5030888;28;20467;-81
2023/07/28 05:58:53;;;;;;;2.33;0.70;;;;;;;;;;5037447;28;20114;-80
2023/07/28 06:01:20;;;;;;;1.83;0.68;;;;;;;;;;5033503;28;20245;-78
2023/07/28 06:04:22;;;;;;;0.80;0.60;;;;;;;;;;4966508;28;20046;-78
2023/07/28 06:06:53;;;;;;;1.17;0.60;;;;;;;;;;5000612;28;20439;-79
2023/07/28 06:09:20;;;;;;;1.00;0.70;;;;;;;;;;5017520;28;20049;-79
2023/07/28 06:11:47;;;;;;;1.10;0.68;;;;;;;;;;5010271;28;20049;-79
2023/07/28 06:14:14;;;;;;;0.70;0.45;;;;;;;;;;5021443;28;20273;-76
2023/07/28 06:16:41;;;;;;;1.42;0.57;;;;;;;;;;4997283;28;20065;-80
2023/07/28 06:19:08;;;;;;;2.65;0.60;;;;;;;;;;5014745;28;20049;-77
2023/07/28 06:21:36;;;;;;;0.95;0.60;;;;;;;;;;5014536;28;20072;-79
2023/07/28 06:24:03;;;;;;;1.63;0.95;;;;;;;;;;5015721;28;20371;-78
2023/07/28 06:26:30;;;;;;;1.67;0.80;;;;;;;;;;5014835;28;20464;-80
2023/07/28 06:28:57;;;;;;;0.52;0.35;;;;;;;;;;5035351;28;20141;-79
2023/07/28 06:31:24;;;;;;;0.77;0.57;;;;;;;;;;5018293;28;20328;-78
2023/07/28 06:33:51;;;;;;;1.08;0.50;;;;;;;;;;5025051;28;20050;-81
2023/07/28 06:36:18;;;;;;;0.90;0.52;;;;;;;;;;5033005;28;20066;-80
2023/07/28 06:38:48;;;;;;;0.65;0.47;;;;;;;;;;5018734;28;20530;-80
2023/07/28 06:41:15;;;;;;;1.88;0.50;;;;;;;;;;5029146;28;20091;-79
2023/07/28 06:43:44;;;;;;;0.70;0.60;;;;;;;;;;5020667;28;20603;-80
2023/07/28 06:46:11;;;;;;;2.17;0.60;;;;;;;;;;5014614;28;20049;-78
2023/07/28 06:48:38;;;;;;;1.00;0.50;;;;;;;;;;5025859;28;20122;-78
2023/07/28 06:51:06;;;;;;;1.63;0.77;;;;;;;;;;5019555;28;20048;-78
2023/07/28 06:53:34;;;;;;;1.10;1.00;;;;;;;;;;5018732;28;20051;-79
2023/07/28 06:56:01;;;;;;;0.80;0.80;;;;;;;;;;5001583;28;20037;-79
2023/07/28 06:58:27;;;;;;;1.23;0.80;;;;;;;;;;4995725;28;20037;-79
2023/07/28 07:00:55;;;;;;;1.00;0.90;;;;;;;;;;5027276;28;20081;-81
2023/07/28 07:03:23;;;;;;;3.30;0.93;;;;;;;;;;5014131;28;20419;-78
2023/07/28 07:05:51;;;;;;;1.15;0.90;;;;;;;;;;5020908;28;20096;-79
2023/07/28 07:08:17;;;;;;;1.08;0.70;;;;;;;;;;5014436;28;20041;-77
2023/07/28 07:10:48;;;;;;;0.95;0.60;;;;;;;;;;5009967;28;20189;-79
2023/07/28 07:13:15;;;;;;;2.50;0.60;;;;;;;;;;5012768;28;20052;-78
2023/07/28 07:15:42;;;;;;;0.98;0.55;;;;;;;;;;5030039;28;20045;-78
2023/07/28 07:18:09;;;;;;;1.83;0.50;;;;;;;;;;5029079;28;20052;-78
2023/07/28 07:20:39;;;;;;;0.57;0.47;;;;;;;;;;5023017;28;20045;-80
2023/07/28 07:23:06;;;;;;;1.20;0.60;;;;;;;;;;5052941;28;20407;-79
2023/07/28 07:25:33;;;;;;;1.92;0.40;;;;;;;;;;5032686;28;20044;-78
2023/07/28 07:28:03;;;;;;;0.77;0.57;;;;;;;;;;5014524;28;20047;-78
2023/07/28 07:30:32;;;;;;;0.50;0.30;;;;;;;;;;5016986;28;20060;-79
2023/07/28 07:32:59;;;;;;;0.57;0.35;;;;;;;;;;5020502;28;20049;-79
2023/07/28 07:35:25;;;;;;;0.50;0.30;;;;;;;;;;5014861;28;20046;-78
2023/07/28 07:37:52;;;;;;;0.77;0.43;;;;;;;;;;5028075;28;20041;-79
2023/07/28 07:40:19;;;;;;;0.95;0.47;;;;;;;;;;5013070;28;20559;-79
2023/07/28 07:42:46;;;;;;;0.60;0.43;;;;;;;;;;5011723;28;20124;-78
2023/07/28 07:45:14;;;;;;;0.73;0.50;;;;;;;;;;5010079;28;20041;-79
2023/07/28 07:47:41;;;;;;;0.70;0.50;;;;;;;;;;5012846;28;20049;-79
2023/07/28 07:50:08;;;;;;;0.50;0.32;;;;;;;;;;4998565;28;20041;-79
2023/07/28 07:52:36;;;;;;;2.05;0.30;;;;;;;;;;5032017;28;20213;-80
2023/07/28 07:55:06;;;;;;;0.20;0.20;;;;;;;;;;5010097;28;20569;-79
2023/07/28 07:57:33;;;;;;;1.95;0.25;;;;;;;;;;5028288;28;20053;-80
2023/07/28 08:00:00;;;;;;;0.85;0.30;;;;;;;;;;5027792;28;20034;-80
2023/07/28 08:02:38;;;;;;;0.70;0.40;;;;;;;;;;5024037;28;20048;-79
2023/07/28 08:05:05;;;;;;;2.08;0.35;;;;;;;;;;5027840;28;20037;-79
2023/07/28 08:07:32;;;;;;;0.40;0.35;;;;;;;;;;5032379;28;20079;-77
2023/07/28 08:09:58;;;;;;;0.60;0.35;;;;;;;;;;5028274;28;20048;-80
2023/07/28 08:12:26;;;;;;;1.00;0.28;;;;;;;;;;5015832;28;20054;-79
2023/07/28 08:14:53;;;;;;;0.30;0.30;;;;;;;;;;4999797;28;20527;-78
2023/07/28 08:17:22;;;;;;;0.60;0.30;;;;;;;;;;5031254;28;20527;-78
2023/07/28 08:19:49;;;;;;;1.10;0.30;;;;;;;;;;5012156;28;20132;-80
2023/07/28 08:22:16;;;;;;;1.38;0.40;;;;;;;;;;5010190;28;20041;-78
2023/07/28 08:24:43;;;;;;;0.40;0.30;;;;;;;;;;4999602;28;20056;-77
2023/07/28 08:27:09;;;;;;;0.20;0.20;;;;;;;;;;5003932;28;20052;-79
2023/07/28 08:29:36;;;;;;;0.93;0.40;;;;;;;;;;5018858;28;20063;-79
2023/07/28 08:32:03;;;;;;;2.15;0.40;;;;;;;;;;5025538;28;20044;-80
2023/07/28 08:34:30;;;;;;;1.17;0.45;;;;;;;;;;4999269;28;20260;-79
2023/07/28 08:36:57;;;;;;;1.20;0.40;;;;;;;;;;5016108;28;20053;-80
2023/07/28 08:39:24;;;;;;;0.40;0.20;;;;;;;;;;5030382;28;20049;-79
2023/07/28 08:41:57;;;;;;;0.85;0.38;;;;;;;;;;5015616;28;20049;-80
2023/07/28 08:44:24;;;;;;;0.32;0.30;;;;;;;;;;5025828;28;20068;-80
2023/07/28 08:46:51;;;;;;;0.60;0.20;;;;;;;;;;5025481;28;20048;-80
2023/07/28 08:49:18;;;;;;;0.40;0.30;;;;;;;;;;5030745;28;20048;-79
2023/07/28 08:51:52;;;;;;;0.30;0.30;;;;;;;;;;5035805;28;20569;-79
2023/07/28 08:54:19;;;;;;;0.22;0.20;;;;;;;;;;5033179;28;20097;-79
2023/07/28 08:56:46;;;;;;;0.35;0.20;;;;;;;;;;5022769;28;20065;-77
2023/07/28 08:59:20;;;;;;;0.95;0.20;;;;;;;;;;5014794;28;20042;-79
2023/07/28 09:01:49;;;;;;;0.57;0.20;;;;;;;;;;5031714;28;20049;-78
2023/07/28 09:04:16;;;;;;;2.15;0.28;;;;;;;;;;5032805;28;20083;-80
2023/07/28 09:06:46;;;;;;;1.95;0.30;;;;;;;;;;5027781;28;20053;-81
2023/07/28 09:09:14;;;;;;;0.25;0.20;;;;;;;;;;5055740;28;20519;-78
2023/07/28 09:11:44;;;;;;;0.57;0.40;;;;;;;;;;5033334;28;20037;-78
2023/07/28 09:14:16;;;;;;;0.52;0.20;;;;;;;;;;5050135;28;20040;-82
2023/07/28 09:16:43;;;;;;;0.32;0.30;;;;;;;;;;5019998;28;20073;-79
2023/07/28 09:19:10;;;;;;;1.45;0.45;;;;;;;;;;5035232;28;20045;-80
2023/07/28 09:21:42;;;;;;;0.28;0.20;;;;;;;;;;5022457;28;20038;-80
2023/07/28 09:24:10;;;;;;;0.40;0.30;;;;;;;;;;5030354;28;20104;-80
2023/07/28 09:26:41;;;;;;;0.30;0.20;;;;;;;;;;5014427;28;20520;-80
2023/07/28 09:29:12;;;;;;;0.70;0.40;;;;;;;;;;5017429;28;20076;-78
2023/07/28 09:31:39;;;;;;;1.15;0.30;;;;;;;;;;5028271;28;20041;-81
2023/07/28 09:34:09;;;;;;;0.20;0.20;;;;;;;;;;5011404;28;20253;-79
2023/07/28 09:36:38;;;;;;;0.82;0.30;;;;;;;;;;5026668;28;20091;-79
2023/07/28 09:39:09;;;;;;;0.20;0.20;;;;;;;;;;5005137;28;20500;-81
2023/07/28 09:41:38;;;;;;;0.30;0.20;;;;;;;;;;5032246;28;20322;-80
2023/07/28 09:44:05;;;;;;;0.45;0.25;;;;;;;;;;4996469;28;20046;-79
2023/07/28 09:46:33;;;;;;;2.22;0.30;;;;;;;;;;5018363;28;20068;-80
2023/07/28 09:49:03;;;;;;;0.20;0.20;;;;;;;;;;4994878;28;20033;-79
2023/07/28 09:51:31;;;;;;;0.32;0.30;;;;;;;;;;5017483;28;20069;-80
2023/07/28 09:54:04;;;;;;;0.70;0.13;;;;;;;;;;5020992;28;20049;-80
2023/07/28 09:56:31;;;;;;;0.65;0.20;;;;;;;;;;5014484;28;20484;-80
2023/07/28 09:58:58;;;;;;;0.35;0.28;;;;;;;;;;5014746;28;20085;-79
2023/07/28 10:01:25;;;;;;;0.28;0.22;;;;;;;;;;4996731;28;20061;-81
2023/07/28 10:03:52;;;;;;;0.35;0.20;;;;;;;;;;5003620;28;20045;-80
2023/07/28 10:06:19;;;;;;;1.10;0.30;;;;;;;;;;5024518;28;20046;-80
2023/07/28 10:08:46;;;;;;;0.20;0.20;;;;;;;;;;5022094;28;20057;-80
2023/07/28 10:11:14;;;;;;;0.10;0.10;;;;;;;;;;5033824;28;20042;-82
2023/07/28 10:13:42;;;;;;;0.73;0.40;;;;;;;;;;5024951;28;20049;-80
2023/07/28 10:16:10;;;;;;;0.22;0.22;;;;;;;;;;5011717;28;20048;-79
2023/07/28 10:18:36;;;;;;;0.65;0.40;;;;;;;;;;5012817;28;20046;-81
2023/07/28 10:21:08;;;;;;;0.32;0.30;;;;;;;;;;5016768;28;20080;-81
2023/07/28 10:23:38;;;;;;;1.00;0.30;;;;;;;;;;5016464;28;20049;-81
2023/07/28 10:26:07;;;;;;;0.20;0.20;;;;;;;;;;5002196;28;20034;-81
2023/07/28 10:28:43;;;;;;;1.70;0.43;;;;;;;;;;5036324;28;20040;-81
2023/07/28 10:31:15;;;;;;;0.52;0.30;;;;;;;;;;5055012;28;20068;-78
2023/07/28 10:33:44;;;;;;;0.63;0.20;;;;;;;;;;5038483;28;20044;-83
2023/07/28 10:36:13;;;;;;;1.15;0.30;;;;;;;;;;5017452;28;20056;-80
2023/07/28 10:38:40;;;;;;;0.40;0.30;;;;;;;;;;5045163;28;20056;-83
2023/07/28 10:41:07;;;;;;;1.05;0.45;;;;;;;;;;5033354;28;20059;-80
2023/07/28 10:43:34;;;;;;;0.30;0.30;;;;;;;;;;5035989;28;20095;-79
2023/07/28 10:46:01;;;;;;;0.52;0.30;;;;;;;;;;5019026;28;20132;-80
2023/07/28 10:48:28;;;;;;;0.45;0.32;;;;;;;;;;5035219;28;20099;-80
2023/07/28 10:50:55;;;;;;;2.17;0.20;;;;;;;;;;5010585;28;20049;-79
2023/07/28 10:53:21;;;;;;;0.98;0.30;;;;;;;;;;5027925;28;20054;-81
2023/07/28 10:55:49;;;;;;;0.40;0.30;;;;;;;;;;5020948;28;20037;-80
2023/07/28 10:58:16;;;;;;;0.20;0.20;;;;;;;;;;5029070;28;20484;-80
2023/07/28 11:00:43;;;;;;;0.50;0.47;;;;;;;;;;4999650;28;20061;-80
2023/07/28 11:03:10;;;;;;;0.52;0.30;;;;;;;;;;5012608;28;20101;-81
2023/07/28 11:05:37;;;;;;;0.82;0.40;;;;;;;;;;5015648;28;20046;-80
2023/07/28 11:08:07;;;;;;;0.40;0.32;;;;;;;;;;5034700;28;20048;-80
2023/07/28 11:10:35;;;;;;;0.75;0.38;;;;;;;;;;5047087;28;20118;-80
2023/07/28 11:13:02;;;;;;;1.23;0.45;;;;;;;;;;5035812;28;20048;-81
2023/07/28 11:15:49;;;;;;;0.88;0.30;;;;;;;;;;5023523;28;20157;-80
2023/07/28 11:18:16;;;;;;;0.88;0.40;;;;;;;;;;5028722;28;20080;-80
2023/07/28 11:20:44;;;;;;;0.45;0.40;;;;;;;;;;5028450;28;20048;-78
2023/07/28 11:23:13;;;;;;;0.50;0.32;;;;;;;;;;5034096;28;20385;-81
2023/07/28 11:25:41;;;;;;;0.43;0.30;;;;;;;;;;5017110;28;20042;-80
2023/07/28 11:28:10;;;;;;;0.50;0.28;;;;;;;;;;5034955;28;20068;-81
2023/07/28 11:30:42;;;;;;;0.30;0.30;;;;;;;;;;5016377;28;20052;-79
2023/07/28 11:33:11;;;;;;;1.50;0.30;;;;;;;;;;5018227;28;20411;-81
2023/07/28 11:35:39;;;;;;;0.30;0.30;;;;;;;;;;5017819;28;20109;-81
2023/07/28 11:38:07;;;;;;;0.90;0.60;;;;;;;;;;5025798;28;20058;-80
2023/07/28 11:40:35;;;;;;;0.70;0.35;;;;;;;;;;5022158;28;20045;-79
2023/07/28 11:43:02;;;;;;;0.47;0.40;;;;;;;;;;5035473;28;20053;-79
2023/07/28 11:45:29;;;;;;;0.93;0.40;;;;;;;;;;5031754;28;20060;-78
2023/07/28 11:47:56;;;;;;;0.50;0.30;;;;;;;;;;5033088;28;20101;-80
2023/07/28 11:50:28;;;;;;;1.90;0.40;;;;;;;;;;5041690;28;20055;-78
2023/07/28 11:52:56;;;;;;;0.68;0.40;;;;;;;;;;5012974;28;20100;-79
2023/07/28 11:55:23;;;;;;;1.55;0.30;;;;;;;;;;5025266;28;20534;-79
2023/07/28 11:57:51;;;;;;;0.30;0.30;;;;;;;;;;5004122;28;20041;-80
2023/07/28 12:00:18;;;;;;;0.43;0.35;;;;;;;;;;5026942;28;20049;-79
2023/07/28 12:02:45;;;;;;;0.30;0.30;;;;;;;;;;5014882;28;20061;-79
2023/07/28 12:05:13;;;;;;;1.10;0.40;;;;;;;;;;5015989;28;20049;-79
2023/07/28 12:07:48;;;;;;;0.60;0.40;;;;;;;;;;4999710;28;20068;-78
2023/07/28 12:10:15;;;;;;;0.45;0.30;;;;;;;;;;5031202;28;20415;-79
2023/07/28 12:13:05;;;;;;;0.70;0.32;;;;;;;;;;5012446;28;20132;-81
2023/07/28 12:15:40;;;;;;;0.30;0.30;;;;;;;;;;5010953;28;20042;-78
2023/07/28 12:18:09;;;;;;;0.40;0.30;;;;;;;;;;5034420;28;20053;-79
2023/07/28 12:20:46;;;;;;;0.50;0.30;;;;;;;;;;5033538;28;20053;-82
2023/07/28 12:23:17;;;;;;;0.30;0.30;;;;;;;;;;5033929;28;20053;-80
2023/07/28 12:25:48;;;;;;;2.58;0.40;;;;;;;;;;5021078;28;20049;-82
2023/07/28 12:28:15;;;;;;;0.43;0.38;;;;;;;;;;4996841;28;20112;-78
2023/07/28 12:30:48;;;;;;;1.30;0.45;;;;;;;;;;5010821;28;20054;-77
2023/07/28 12:33:16;;;;;;;0.60;0.40;;;;;;;;;;5031802;28;20094;-80
2023/07/28 12:35:45;;;;;;;0.30;0.30;;;;;;;;;;5024905;28;20069;-80
2023/07/28 12:38:17;;;;;;;0.40;0.40;;;;;;;;;;5033842;28;20041;-80
2023/07/28 12:40:46;;;;;;;0.50;0.40;;;;;;;;;;5033460;28;20113;-79
2023/07/28 12:43:16;;;;;;;1.02;0.40;;;;;;;;;;5032653;28;20113;-77
2023/07/28 12:45:46;;;;;;;3.60;0.43;;;;;;;;;;5034131;28;20487;-79
2023/07/28 12:48:16;;;;;;;1.00;0.47;;;;;;;;;;5031804;28;20677;-79
2023/07/28 12:50:46;;;;;;;0.38;0.38;;;;;;;;;;5034942;28;20049;-80
2023/07/28 12:53:13;;;;;;;0.43;0.43;;;;;;;;;;5034731;28;20507;-80
2023/07/28 12:55:44;;;;;;;0.60;0.50;;;;;;;;;;5015626;28;20049;-78
2023/07/28 12:58:14;;;;;;;0.40;0.30;;;;;;;;;;5013430;28;20467;-82
2023/07/28 13:00:44;;;;;;;1.17;0.50;;;;;;;;;;5025568;28;20696;-77
2023/07/28 13:03:13;;;;;;;0.68;0.40;;;;;;;;;;5053586;28;20044;-80
2023/07/28 13:05:43;;;;;;;0.30;0.30;;;;;;;;;;5012020;28;20515;-80
2023/07/28 13:08:10;;;;;;;1.83;0.40;;;;;;;;;;5009197;28;20147;-80
2023/07/28 13:10:38;;;;;;;0.47;0.40;;;;;;;;;;5003554;28;20044;-79
2023/07/28 13:13:07;;;;;;;0.35;0.30;;;;;;;;;;5048782;28;20055;-80
2023/07/28 13:15:37;;;;;;;0.30;0.30;;;;;;;;;;5034940;28;20068;-78
2023/07/28 13:18:04;;;;;;;2.95;0.60;;;;;;;;;;5026117;28;20124;-80
2023/07/28 13:20:31;;;;;;;0.30;0.30;;;;;;;;;;5024788;28;20040;-78
2023/07/28 13:22:57;;;;;;;0.68;0.40;;;;;;;;;;5034857;28;20048;-81
2023/07/28 13:25:24;;;;;;;0.82;0.35;;;;;;;;;;5010443;28;20049;-78
2023/07/28 13:27:51;;;;;;;0.40;0.40;;;;;;;;;;5016348;28;20462;-80
2023/07/28 13:30:18;;;;;;;0.35;0.35;;;;;;;;;;5010387;28;20038;-80
2023/07/28 13:32:45;;;;;;;0.40;0.40;;;;;;;;;;5031978;28;20046;-80
2023/07/28 13:35:14;;;;;;;20.17;0.75;;;;;;;;;;5030268;28;20093;-79
2023/07/28 13:37:41;;;;;;;6.00;0.40;;;;;;;;;;5030728;28;20065;-79
2023/07/28 13:40:08;;;;;;;0.93;0.55;;;;;;;;;;5014628;28;20429;-79
2023/07/28 13:42:38;;;;;;;0.68;0.40;;;;;;;;;;5032560;28;20140;-80
2023/07/28 13:45:05;;;;;;;0.60;0.20;;;;;;;;;;5034151;28;20037;-80
2023/07/28 13:47:32;;;;;;;0.60;0.40;;;;;;;;;;5035050;28;20049;-80
2023/07/28 13:49:59;;;;;;;0.30;0.30;;;;;;;;;;5035455;28;20034;-80
2023/07/28 13:52:26;;;;;;;0.40;0.30;;;;;;;;;;5035757;28;20053;-79
2023/07/28 13:54:53;;;;;;;0.35;0.30;;;;;;;;;;5033543;28;20045;-78
2023/07/28 13:57:23;;;;;;;0.40;0.40;;;;;;;;;;5027920;28;20651;-79
2023/07/28 13:59:50;;;;;;;1.10;0.50;;;;;;;;;;5030043;28;20041;-80
2023/07/28 14:02:18;;;;;;;0.22;0.22;;;;;;;;;;5026019;28;20118;-79
2023/07/28 14:04:45;;;;;;;0.22;0.22;;;;;;;;;;5017213;28;20072;-81
2023/07/28 14:07:11;;;;;;;0.30;0.30;;;;;;;;;;5018575;28;20080;-80
2023/07/28 14:09:40;;;;;;;0.40;0.30;;;;;;;;;;5027688;28;20171;-80
2023/07/28 14:12:09;;;;;;;0.77;0.30;;;;;;;;;;5005827;28;20041;-81
2023/07/28 14:14:36;;;;;;;0.38;0.30;;;;;;;;;;5021038;28;20103;-78
2023/07/28 14:17:03;;;;;;;0.30;0.30;;;;;;;;;;5029207;28;20072;-80
2023/07/28 14:19:30;;;;;;;0.38;0.38;;;;;;;;;;5033422;28;20103;-80
2023/07/28 14:21:57;;;;;;;0.40;0.38;;;;;;;;;;5035781;28;20046;-79
2023/07/28 14:24:24;;;;;;;0.30;0.30;;;;;;;;;;5035795;28;20076;-79
2023/07/28 14:26:50;;;;;;;0.30;0.30;;;;;;;;;;5033283;28;20105;-81
2023/07/28 14:29:17;;;;;;;1.17;0.38;;;;;;;;;;5023216;28;20048;-79
2023/07/28 14:31:44;;;;;;;0.30;0.30;;;;;;;;;;5010400;28;20108;-79
2023/07/28 14:34:10;;;;;;;1.30;0.40;;;;;;;;;;5019126;28;20077;-78
2023/07/28 14:36:38;;;;;;;0.43;0.40;;;;;;;;;;4998144;28;20081;-80
2023/07/28 14:39:06;;;;;;;0.50;0.40;;;;;;;;;;5004983;28;20056;-79
2023/07/28 14:41:32;;;;;;;0.65;0.50;;;;;;;;;;5004021;28;20066;-78
2023/07/28 14:44:00;;;;;;;0.80;0.43;;;;;;;;;;5001494;28;20558;-79
2023/07/28 14:46:27;;;;;;;0.60;0.40;;;;;;;;;;5011791;28;20102;-78
2023/07/28 14:48:55;;;;;;;0.57;0.20;;;;;;;;;;5010516;28;20061;-80